Skip Navigation Links
NOAA logo - Click to go to the NOAA homepage
NOAA's National Weather Service
Alaska Aviation Weather Unit
  NWS logo - Click to go to the NWS homepage
Left Navbar Graphic     21 AKDT = 05 GMT

   
NOAA is celebrating 200 years of science, service, and stewardship. Visit the NOAA 200th celebration Web site to learn more.
USA.gov is the U.S. Government's official Web portal to all Federal, state and local government Web resources and services.
Facebook
NWS on Facebook

Important Change Regarding the AAWU Web Presence

 

Over the last several months, the AAWU has been working to navigate its webpages to a nationally supported server. Security, as well as other needs, have necessitated the change.  In the process, we have made an effort to enhance the functionality of our website, as well as some of our products. As of June 27, 2017, aawu.arh.noaa.gov will be discontinued. The new AAWU web address is weather.gov/aawu. It is now live and will run in-parallel with the old site until it is discontinued. Please send any feedback or questions regarding the new webpages to nws.ar.aawu.webauthors@noaa.gov.  Thank you for your patience during this time of transition.
AAWU Home :: Display TAF Add Bookmark
METAR PAMD 252316Z AUTO 26014KT 10SM OVC005 13/09 A2999 RMK AO1=

METAR PAMD 252336Z AUTO 26014G17KT 10SM OVC004 13/09 A2998 RMK AO1=

METAR PAMD 252356Z AUTO 27011G16KT 250V330 10SM OVC004 13/10 A2998 RMK
     AO1 10140 20130 401600110 57007=

METAR PAMD 260016Z AUTO 27012KT 10SM BKN005 13/10 A2998 RMK AO1=

METAR PAMD 260036Z AUTO 26012G17KT 10SM SCT005 13/10 A2998 RMK AO1=

METAR PAMD 260056Z AUTO 27011G16KT 10SM OVC006 13/10 A2998 RMK AO1=

METAR PAMD 260116Z AUTO 26014KT 10SM SCT006 13/10 A2998 RMK AO1=

METAR PAMD 260136Z AUTO 27011G19KT 10SM CLR 13/10 A2998 RMK AO1=

METAR PAMD 260156Z AUTO 26012G17KT 10SM CLR 14/10 A2997 RMK AO1=

METAR PAMD 260216Z AUTO 27012G17KT 10SM CLR 14/10 A2997 RMK AO1=

METAR PAMD 260236Z AUTO 25016KT 10SM CLR 13/09 A2997 RMK AO1=

PAMD 260256Z AUTO 26016G21KT 10SM CLR 13/09 A2997 RMK AO1
     57003=

METAR PAMD 260316Z AUTO 26015G20KT 10SM CLR 13/09 A2997 RMK AO1=

METAR PAMD 260336Z AUTO 25013KT 10SM CLR 13/09 A2997 RMK AO1=

METAR PAMD 260356Z AUTO 26014G20KT 10SM CLR 13/09 A2997 RMK AO1=

METAR PAMD 260416Z AUTO 26015G20KT 10SM FEW006 13/09 A2997 RMK AO1=

METAR PAMD 260436Z AUTO 26016G19KT 10SM SCT006 12/09 A2997 RMK AO1=

METAR PAMD 260456Z AUTO 26015KT 10SM CLR 12/08 A2997 RMK AO1=

METAR PAMD 260516Z AUTO 25015KT 10SM CLR 11/08 A2997 RMK AO1=


NOAA's National Weather Service
Alaska Aviation Weather Unit
6930 Sand Lake Road
Anchorage, AK 99502-1845
Disclaimer
Credits
Glossary
Privacy Policy
About Us
Career Opportunities
Contact AAWU Internet Services Site last modified: April, 17th 2012